Avawam, Kentucky
Current Conditions -  °F | °C
As of 1:53 AM on Monday 22 Dec 2014 (Local Time) from KJKL Reporting Station
Overcast Overcast  
Wind Chill: 37°   Ceiling: 4300
Heat Index: 37°   Visibility: 10mi
Dew Point: 26°   Wind: 3mph
Humidity: 65%   Direction: 90°E
Pressure: 30.05"   Gusts: NA
Location:  37.22°N, 83.27°W
Report Text: KJKL 220653Z AUTO 09003KT 10SM OVC043 03/M03 A3005 RMK AO2 SLP179 T00281033
Loading
Personal Weather Stations






























Interactive Weather Map New forecast layout! Learn more

10-Day Weather Forecast

Advertisements
Track Severe Weather on mobile